sensor_id;sensor_type;location;lat;lon;timestamp;temperature;humidity
27619;DHT22;15039;50.830;4.730;2024-02-26T00:02:07;7.30;99.90
27619;DHT22;15039;50.830;4.730;2024-02-26T00:04:32;7.30;99.90
27619;DHT22;15039;50.830;4.730;2024-02-26T00:06:58;7.30;99.90
27619;DHT22;15039;50.830;4.730;2024-02-26T00:09:23;7.30;99.90
27619;DHT22;15039;50.830;4.730;2024-02-26T00:11:49;7.30;99.90
27619;DHT22;15039;50.830;4.730;2024-02-26T00:14:14;7.30;99.90
27619;DHT22;15039;50.830;4.730;2024-02-26T00:16:40;7.30;99.90
27619;DHT22;15039;50.830;4.730;2024-02-26T00:19:06;7.30;99.90
27619;DHT22;15039;50.830;4.730;2024-02-26T00:21:32;7.30;99.90
27619;DHT22;15039;50.830;4.730;2024-02-26T00:23:57;7.30;99.90
27619;DHT22;15039;50.830;4.730;2024-02-26T00:26:23;7.30;99.90
27619;DHT22;15039;50.830;4.730;2024-02-26T00:28:48;7.30;99.90
27619;DHT22;15039;50.830;4.730;2024-02-26T00:31:14;7.20;99.90
27619;DHT22;15039;50.830;4.730;2024-02-26T00:33:39;7.20;99.90
27619;DHT22;15039;50.830;4.730;2024-02-26T00:36:06;7.10;99.90
27619;DHT22;15039;50.830;4.730;2024-02-26T00:38:31;7.10;99.90
27619;DHT22;15039;50.830;4.730;2024-02-26T00:40:57;7.10;99.90
27619;DHT22;15039;50.830;4.730;2024-02-26T00:43:23;7.10;99.90
27619;DHT22;15039;50.830;4.730;2024-02-26T00:45:48;7.10;99.90
27619;DHT22;15039;50.830;4.730;2024-02-26T00:48:14;7.00;99.90
27619;DHT22;15039;50.830;4.730;2024-02-26T00:50:39;7.00;99.90
27619;DHT22;15039;50.830;4.730;2024-02-26T00:53:05;7.10;99.90
27619;DHT22;15039;50.830;4.730;2024-02-26T00:55:31;7.10;99.90
27619;DHT22;15039;50.830;4.730;2024-02-26T00:57:56;7.00;99.90
27619;DHT22;15039;50.830;4.730;2024-02-26T01:00:22;7.00;99.90
27619;DHT22;15039;50.830;4.730;2024-02-26T01:02:47;7.00;99.90
27619;DHT22;15039;50.830;4.730;2024-02-26T01:05:14;6.90;99.90
27619;DHT22;15039;50.830;4.730;2024-02-26T01:07:41;7.00;99.90
27619;DHT22;15039;50.830;4.730;2024-02-26T01:10:07;7.00;99.90
27619;DHT22;15039;50.830;4.730;2024-02-26T01:12:33;6.90;99.90
27619;DHT22;15039;50.830;4.730;2024-02-26T01:14:59;7.00;99.90
27619;DHT22;15039;50.830;4.730;2024-02-26T01:17:25;7.00;99.90
27619;DHT22;15039;50.830;4.730;2024-02-26T01:19:50;7.10;99.90
27619;DHT22;15039;50.830;4.730;2024-02-26T01:22:16;7.00;99.90
27619;DHT22;15039;50.830;4.730;2024-02-26T01:24:41;7.00;99.90
27619;DHT22;15039;50.830;4.730;2024-02-26T01:27:07;6.90;99.90
27619;DHT22;15039;50.830;4.730;2024-02-26T01:29:34;7.00;99.90
27619;DHT22;15039;50.830;4.730;2024-02-26T01:31:59;6.70;99.90
27619;DHT22;15039;50.830;4.730;2024-02-26T01:34:25;6.90;99.90
27619;DHT22;15039;50.830;4.730;2024-02-26T01:36:50;6.80;99.90
27619;DHT22;15039;50.830;4.730;2024-02-26T01:39:16;6.90;99.90
27619;DHT22;15039;50.830;4.730;2024-02-26T01:41:42;6.90;99.90
27619;DHT22;15039;50.830;4.730;2024-02-26T01:44:08;6.80;99.90
27619;DHT22;15039;50.830;4.730;2024-02-26T01:46:36;6.80;99.90
27619;DHT22;15039;50.830;4.730;2024-02-26T01:49:02;6.90;99.90
27619;DHT22;15039;50.830;4.730;2024-02-26T01:51:28;6.80;99.90
27619;DHT22;15039;50.830;4.730;2024-02-26T01:53:54;6.80;99.90
27619;DHT22;15039;50.830;4.730;2024-02-26T01:56:20;6.70;99.90
27619;DHT22;15039;50.830;4.730;2024-02-26T01:58:46;6.80;99.90
27619;DHT22;15039;50.830;4.730;2024-02-26T02:01:13;6.90;99.90
27619;DHT22;15039;50.830;4.730;2024-02-26T02:03:40;6.80;99.90
27619;DHT22;15039;50.830;4.730;2024-02-26T02:06:07;6.90;99.90
27619;DHT22;15039;50.830;4.730;2024-02-26T02:08:32;6.80;99.90
27619;DHT22;15039;50.830;4.730;2024-02-26T02:11:00;6.80;99.90
27619;DHT22;15039;50.830;4.730;2024-02-26T02:13:26;6.80;99.90
27619;DHT22;15039;50.830;4.730;2024-02-26T02:15:52;6.80;99.90
27619;DHT22;15039;50.830;4.730;2024-02-26T02:18:19;6.80;99.90
27619;DHT22;15039;50.830;4.730;2024-02-26T02:20:44;6.90;99.90
27619;DHT22;15039;50.830;4.730;2024-02-26T02:23:10;6.80;99.90
27619;DHT22;15039;50.830;4.730;2024-02-26T02:25:35;6.90;99.90
27619;DHT22;15039;50.830;4.730;2024-02-26T02:28:01;7.00;99.90
27619;DHT22;15039;50.830;4.730;2024-02-26T02:30:27;6.90;99.90
27619;DHT22;15039;50.830;4.730;2024-02-26T02:32:54;6.80;99.90
27619;DHT22;15039;50.830;4.730;2024-02-26T02:35:20;6.80;99.90
27619;DHT22;15039;50.830;4.730;2024-02-26T02:37:46;6.70;99.90
27619;DHT22;15039;50.830;4.730;2024-02-26T02:40:11;6.80;99.90
27619;DHT22;15039;50.830;4.730;2024-02-26T02:42:38;6.80;99.90
27619;DHT22;15039;50.830;4.730;2024-02-26T02:45:04;6.80;99.90
27619;DHT22;15039;50.830;4.730;2024-02-26T02:47:30;6.70;99.90
27619;DHT22;15039;50.830;4.730;2024-02-26T02:49:55;6.80;99.90
27619;DHT22;15039;50.830;4.730;2024-02-26T02:52:21;6.70;99.90
27619;DHT22;15039;50.830;4.730;2024-02-26T02:54:46;6.60;99.90
27619;DHT22;15039;50.830;4.730;2024-02-26T02:57:12;6.60;99.90
27619;DHT22;15039;50.830;4.730;2024-02-26T02:59:38;6.70;99.90
27619;DHT22;15039;50.830;4.730;2024-02-26T03:02:03;6.80;99.90
27619;DHT22;15039;50.830;4.730;2024-02-26T03:04:29;6.70;99.90
27619;DHT22;15039;50.830;4.730;2024-02-26T03:06:55;6.70;99.90
27619;DHT22;15039;50.830;4.730;2024-02-26T03:09:20;6.70;99.90
27619;DHT22;15039;50.830;4.730;2024-02-26T03:11:48;6.70;99.90
27619;DHT22;15039;50.830;4.730;2024-02-26T03:14:14;6.80;99.90
27619;DHT22;15039;50.830;4.730;2024-02-26T03:16:40;6.80;99.90
27619;DHT22;15039;50.830;4.730;2024-02-26T03:19:05;6.80;99.90
27619;DHT22;15039;50.830;4.730;2024-02-26T03:21:31;6.80;99.90
27619;DHT22;15039;50.830;4.730;2024-02-26T03:23:56;6.70;99.90
27619;DHT22;15039;50.830;4.730;2024-02-26T03:26:22;6.80;99.90
27619;DHT22;15039;50.830;4.730;2024-02-26T03:28:48;6.80;99.90
27619;DHT22;15039;50.830;4.730;2024-02-26T03:31:14;6.80;99.90
27619;DHT22;15039;50.830;4.730;2024-02-26T03:33:40;6.80;99.90
27619;DHT22;15039;50.830;4.730;2024-02-26T03:36:05;6.80;99.90
27619;DHT22;15039;50.830;4.730;2024-02-26T03:38:32;6.80;99.90
27619;DHT22;15039;50.830;4.730;2024-02-26T03:40:58;6.70;99.90
27619;DHT22;15039;50.830;4.730;2024-02-26T03:43:23;6.80;99.90
27619;DHT22;15039;50.830;4.730;2024-02-26T03:45:49;6.90;99.90
27619;DHT22;15039;50.830;4.730;2024-02-26T03:48:14;6.80;99.90
27619;DHT22;15039;50.830;4.730;2024-02-26T03:50:40;6.70;99.90
27619;DHT22;15039;50.830;4.730;2024-02-26T03:53:06;6.70;99.90
27619;DHT22;15039;50.830;4.730;2024-02-26T03:55:34;6.80;99.90
27619;DHT22;15039;50.830;4.730;2024-02-26T03:57:59;6.70;99.90
27619;DHT22;15039;50.830;4.730;2024-02-26T04:00:25;6.70;99.90
27619;DHT22;15039;50.830;4.730;2024-02-26T04:02:51;6.70;99.90
27619;DHT22;15039;50.830;4.730;2024-02-26T04:05:17;6.70;99.90
27619;DHT22;15039;50.830;4.730;2024-02-26T04:07:42;6.70;99.90
27619;DHT22;15039;50.830;4.730;2024-02-26T04:10:11;6.80;99.90
27619;DHT22;15039;50.830;4.730;2024-02-26T04:12:41;6.70;99.90
27619;DHT22;15039;50.830;4.730;2024-02-26T04:15:07;6.70;99.90
27619;DHT22;15039;50.830;4.730;2024-02-26T04:17:33;6.70;99.90
27619;DHT22;15039;50.830;4.730;2024-02-26T04:19:58;6.70;99.90
27619;DHT22;15039;50.830;4.730;2024-02-26T04:22:24;6.60;99.90
27619;DHT22;15039;50.830;4.730;2024-02-26T04:24:49;6.70;99.90
27619;DHT22;15039;50.830;4.730;2024-02-26T04:27:15;6.60;99.90
27619;DHT22;15039;50.830;4.730;2024-02-26T04:29:40;6.60;99.90
27619;DHT22;15039;50.830;4.730;2024-02-26T04:32:06;6.70;99.90
27619;DHT22;15039;50.830;4.730;2024-02-26T04:34:31;6.70;99.90
27619;DHT22;15039;50.830;4.730;2024-02-26T04:36:57;6.70;99.90
27619;DHT22;15039;50.830;4.730;2024-02-26T04:39:23;6.70;99.90
27619;DHT22;15039;50.830;4.730;2024-02-26T04:41:48;6.60;99.90
27619;DHT22;15039;50.830;4.730;2024-02-26T04:44:14;6.70;99.90
27619;DHT22;15039;50.830;4.730;2024-02-26T04:46:39;6.70;99.90
27619;DHT22;15039;50.830;4.730;2024-02-26T04:49:06;6.70;99.90
27619;DHT22;15039;50.830;4.730;2024-02-26T04:51:32;6.80;99.90
27619;DHT22;15039;50.830;4.730;2024-02-26T04:53:57;6.80;99.90
27619;DHT22;15039;50.830;4.730;2024-02-26T04:56:23;6.70;99.90
27619;DHT22;15039;50.830;4.730;2024-02-26T04:58:48;6.70;99.90
27619;DHT22;15039;50.830;4.730;2024-02-26T05:01:15;6.70;99.90
27619;DHT22;15039;50.830;4.730;2024-02-26T05:03:42;6.70;99.90
27619;DHT22;15039;50.830;4.730;2024-02-26T05:06:07;6.70;99.90
27619;DHT22;15039;50.830;4.730;2024-02-26T05:08:34;6.70;99.90
27619;DHT22;15039;50.830;4.730;2024-02-26T05:11:04;6.70;99.90
27619;DHT22;15039;50.830;4.730;2024-02-26T05:13:30;6.60;99.90
27619;DHT22;15039;50.830;4.730;2024-02-26T05:15:55;6.60;99.90
27619;DHT22;15039;50.830;4.730;2024-02-26T05:18:24;6.60;99.90
27619;DHT22;15039;50.830;4.730;2024-02-26T05:20:50;6.50;99.90
27619;DHT22;15039;50.830;4.730;2024-02-26T05:23:15;6.60;99.90
27619;DHT22;15039;50.830;4.730;2024-02-26T05:25:41;6.60;99.90
27619;DHT22;15039;50.830;4.730;2024-02-26T05:28:06;6.50;99.90
27619;DHT22;15039;50.830;4.730;2024-02-26T05:30:32;6.50;99.90
27619;DHT22;15039;50.830;4.730;2024-02-26T05:32:58;6.50;99.90
27619;DHT22;15039;50.830;4.730;2024-02-26T05:35:24;6.50;99.90
27619;DHT22;15039;50.830;4.730;2024-02-26T05:37:49;6.50;99.90
27619;DHT22;15039;50.830;4.730;2024-02-26T05:40:15;6.50;99.90
27619;DHT22;15039;50.830;4.730;2024-02-26T05:42:41;6.40;99.90
27619;DHT22;15039;50.830;4.730;2024-02-26T05:45:06;6.50;99.90
27619;DHT22;15039;50.830;4.730;2024-02-26T05:47:33;6.50;99.90
27619;DHT22;15039;50.830;4.730;2024-02-26T05:50:02;6.50;99.90
27619;DHT22;15039;50.830;4.730;2024-02-26T05:52:29;6.50;99.90
27619;DHT22;15039;50.830;4.730;2024-02-26T05:54:55;6.50;99.90
27619;DHT22;15039;50.830;4.730;2024-02-26T05:57:20;6.40;99.90
27619;DHT22;15039;50.830;4.730;2024-02-26T05:59:46;6.50;99.90
27619;DHT22;15039;50.830;4.730;2024-02-26T06:02:11;6.50;99.90
27619;DHT22;15039;50.830;4.730;2024-02-26T06:04:37;6.40;99.90
27619;DHT22;15039;50.830;4.730;2024-02-26T06:07:02;6.50;99.90
27619;DHT22;15039;50.830;4.730;2024-02-26T06:09:28;6.40;99.90
27619;DHT22;15039;50.830;4.730;2024-02-26T06:11:53;6.40;99.90
27619;DHT22;15039;50.830;4.730;2024-02-26T06:14:19;6.40;99.90
27619;DHT22;15039;50.830;4.730;2024-02-26T06:16:46;6.50;99.90
27619;DHT22;15039;50.830;4.730;2024-02-26T06:19:12;6.50;99.90
27619;DHT22;15039;50.830;4.730;2024-02-26T06:21:38;6.40;99.90
27619;DHT22;15039;50.830;4.730;2024-02-26T06:24:03;6.50;99.90
27619;DHT22;15039;50.830;4.730;2024-02-26T06:26:29;6.40;99.90
27619;DHT22;15039;50.830;4.730;2024-02-26T06:28:55;6.40;99.90
27619;DHT22;15039;50.830;4.730;2024-02-26T06:31:23;6.50;99.90
27619;DHT22;15039;50.830;4.730;2024-02-26T06:33:49;6.50;99.90
27619;DHT22;15039;50.830;4.730;2024-02-26T06:36:17;6.50;99.90
27619;DHT22;15039;50.830;4.730;2024-02-26T06:38:43;6.50;99.90
27619;DHT22;15039;50.830;4.730;2024-02-26T06:41:10;6.50;99.90
27619;DHT22;15039;50.830;4.730;2024-02-26T06:43:36;6.50;99.90
27619;DHT22;15039;50.830;4.730;2024-02-26T06:46:02;6.40;99.90
27619;DHT22;15039;50.830;4.730;2024-02-26T06:48:27;6.40;99.90
27619;DHT22;15039;50.830;4.730;2024-02-26T06:50:53;6.40;99.90
27619;DHT22;15039;50.830;4.730;2024-02-26T06:53:18;6.40;99.90
27619;DHT22;15039;50.830;4.730;2024-02-26T06:55:44;6.40;99.90
27619;DHT22;15039;50.830;4.730;2024-02-26T06:58:11;6.30;99.90
27619;DHT22;15039;50.830;4.730;2024-02-26T07:00:36;6.30;99.90
27619;DHT22;15039;50.830;4.730;2024-02-26T07:03:02;6.30;99.90
27619;DHT22;15039;50.830;4.730;2024-02-26T07:05:28;6.20;99.90
27619;DHT22;15039;50.830;4.730;2024-02-26T07:07:57;6.30;99.90
27619;DHT22;15039;50.830;4.730;2024-02-26T07:10:22;6.20;99.90
27619;DHT22;15039;50.830;4.730;2024-02-26T07:12:48;6.20;99.90
27619;DHT22;15039;50.830;4.730;2024-02-26T07:15:13;6.30;99.90
27619;DHT22;15039;50.830;4.730;2024-02-26T07:17:39;6.20;99.90
27619;DHT22;15039;50.830;4.730;2024-02-26T07:20:07;6.20;99.90
27619;DHT22;15039;50.830;4.730;2024-02-26T07:22:33;6.20;99.90
27619;DHT22;15039;50.830;4.730;2024-02-26T07:24:58;6.20;99.90
27619;DHT22;15039;50.830;4.730;2024-02-26T07:27:24;6.30;99.90
27619;DHT22;15039;50.830;4.730;2024-02-26T07:29:49;6.30;99.90
27619;DHT22;15039;50.830;4.730;2024-02-26T07:32:15;6.30;99.90
27619;DHT22;15039;50.830;4.730;2024-02-26T07:34:41;6.30;99.90
27619;DHT22;15039;50.830;4.730;2024-02-26T07:37:10;6.20;99.90
27619;DHT22;15039;50.830;4.730;2024-02-26T07:39:36;6.30;99.90
27619;DHT22;15039;50.830;4.730;2024-02-26T07:42:02;6.20;99.90
27619;DHT22;15039;50.830;4.730;2024-02-26T07:44:28;6.30;99.90
27619;DHT22;15039;50.830;4.730;2024-02-26T07:46:53;6.20;99.90
27619;DHT22;15039;50.830;4.730;2024-02-26T07:49:18;6.20;99.90
27619;DHT22;15039;50.830;4.730;2024-02-26T07:51:44;6.30;99.90
27619;DHT22;15039;50.830;4.730;2024-02-26T07:54:09;6.30;99.90
27619;DHT22;15039;50.830;4.730;2024-02-26T07:56:35;6.30;99.90
27619;DHT22;15039;50.830;4.730;2024-02-26T07:59:01;6.40;99.90
27619;DHT22;15039;50.830;4.730;2024-02-26T08:01:26;6.20;99.90
27619;DHT22;15039;50.830;4.730;2024-02-26T08:03:53;6.20;99.90
27619;DHT22;15039;50.830;4.730;2024-02-26T08:06:18;6.20;99.90
27619;DHT22;15039;50.830;4.730;2024-02-26T08:08:44;6.20;99.90
27619;DHT22;15039;50.830;4.730;2024-02-26T08:11:10;6.20;99.90
27619;DHT22;15039;50.830;4.730;2024-02-26T08:13:35;6.20;99.90
27619;DHT22;15039;50.830;4.730;2024-02-26T08:16:01;6.20;99.90
27619;DHT22;15039;50.830;4.730;2024-02-26T08:18:26;6.20;99.90
27619;DHT22;15039;50.830;4.730;2024-02-26T08:20:52;6.30;99.90
27619;DHT22;15039;50.830;4.730;2024-02-26T08:23:18;6.30;99.90
27619;DHT22;15039;50.830;4.730;2024-02-26T08:25:43;6.30;99.90
27619;DHT22;15039;50.830;4.730;2024-02-26T08:28:09;6.20;99.90
27619;DHT22;15039;50.830;4.730;2024-02-26T08:30:38;6.20;99.90
27619;DHT22;15039;50.830;4.730;2024-02-26T08:33:04;6.30;99.90
27619;DHT22;15039;50.830;4.730;2024-02-26T08:35:29;6.30;99.90
27619;DHT22;15039;50.830;4.730;2024-02-26T08:37:55;6.30;99.90
27619;DHT22;15039;50.830;4.730;2024-02-26T08:40:20;6.30;99.90
27619;DHT22;15039;50.830;4.730;2024-02-26T08:42:46;6.30;99.90
27619;DHT22;15039;50.830;4.730;2024-02-26T08:45:11;6.30;99.90
27619;DHT22;15039;50.830;4.730;2024-02-26T08:47:37;6.40;99.90
27619;DHT22;15039;50.830;4.730;2024-02-26T08:50:03;6.30;99.90
27619;DHT22;15039;50.830;4.730;2024-02-26T08:52:29;6.40;99.90
27619;DHT22;15039;50.830;4.730;2024-02-26T08:54:54;6.40;99.90
27619;DHT22;15039;50.830;4.730;2024-02-26T08:57:20;6.50;99.90
27619;DHT22;15039;50.830;4.730;2024-02-26T08:59:45;6.40;99.90
27619;DHT22;15039;50.830;4.730;2024-02-26T09:02:11;6.40;99.90
27619;DHT22;15039;50.830;4.730;2024-02-26T09:04:36;6.30;99.90
27619;DHT22;15039;50.830;4.730;2024-02-26T09:07:02;6.40;99.90
27619;DHT22;15039;50.830;4.730;2024-02-26T09:09:29;6.30;99.90
27619;DHT22;15039;50.830;4.730;2024-02-26T09:11:54;6.30;99.90
27619;DHT22;15039;50.830;4.730;2024-02-26T09:14:21;6.40;99.90
27619;DHT22;15039;50.830;4.730;2024-02-26T09:16:46;6.40;99.90
27619;DHT22;15039;50.830;4.730;2024-02-26T09:19:14;6.50;99.90
27619;DHT22;15039;50.830;4.730;2024-02-26T09:21:46;6.30;99.90
27619;DHT22;15039;50.830;4.730;2024-02-26T09:24:11;6.30;99.90
27619;DHT22;15039;50.830;4.730;2024-02-26T09:26:37;6.30;99.90
27619;DHT22;15039;50.830;4.730;2024-02-26T09:29:03;6.30;99.90
27619;DHT22;15039;50.830;4.730;2024-02-26T09:31:29;6.30;99.90
27619;DHT22;15039;50.830;4.730;2024-02-26T09:33:55;6.20;99.90
27619;DHT22;15039;50.830;4.730;2024-02-26T09:36:20;6.30;99.90
27619;DHT22;15039;50.830;4.730;2024-02-26T09:38:47;6.20;99.90
27619;DHT22;15039;50.830;4.730;2024-02-26T09:41:16;6.20;99.90
27619;DHT22;15039;50.830;4.730;2024-02-26T09:43:43;6.20;99.90
27619;DHT22;15039;50.830;4.730;2024-02-26T09:46:09;6.20;99.90
27619;DHT22;15039;50.830;4.730;2024-02-26T09:48:34;6.10;99.90
27619;DHT22;15039;50.830;4.730;2024-02-26T09:51:01;6.20;99.90
27619;DHT22;15039;50.830;4.730;2024-02-26T09:53:28;6.20;99.90
27619;DHT22;15039;50.830;4.730;2024-02-26T09:55:54;6.10;99.90
27619;DHT22;15039;50.830;4.730;2024-02-26T09:58:20;6.00;99.90
27619;DHT22;15039;50.830;4.730;2024-02-26T10:00:51;6.10;99.90
27619;DHT22;15039;50.830;4.730;2024-02-26T10:03:17;6.10;99.90
27619;DHT22;15039;50.830;4.730;2024-02-26T10:05:43;6.20;99.90
27619;DHT22;15039;50.830;4.730;2024-02-26T10:08:09;6.10;99.90
27619;DHT22;15039;50.830;4.730;2024-02-26T10:10:36;6.10;99.90
27619;DHT22;15039;50.830;4.730;2024-02-26T10:13:02;6.10;99.90
27619;DHT22;15039;50.830;4.730;2024-02-26T10:15:29;6.10;99.90
27619;DHT22;15039;50.830;4.730;2024-02-26T10:17:54;6.10;99.90
27619;DHT22;15039;50.830;4.730;2024-02-26T10:20:20;6.30;99.90
27619;DHT22;15039;50.830;4.730;2024-02-26T10:22:51;6.30;99.90
27619;DHT22;15039;50.830;4.730;2024-02-26T10:25:17;6.30;99.90
27619;DHT22;15039;50.830;4.730;2024-02-26T10:27:43;6.30;99.90
27619;DHT22;15039;50.830;4.730;2024-02-26T10:32:44;6.20;99.90
27619;DHT22;15039;50.830;4.730;2024-02-26T10:35:11;6.20;99.90
27619;DHT22;15039;50.830;4.730;2024-02-26T10:37:36;6.10;99.90
27619;DHT22;15039;50.830;4.730;2024-02-26T10:40:03;6.20;99.90
27619;DHT22;15039;50.830;4.730;2024-02-26T10:42:30;6.20;99.90
27619;DHT22;15039;50.830;4.730;2024-02-26T10:44:59;6.10;99.90
27619;DHT22;15039;50.830;4.730;2024-02-26T10:47:24;6.10;99.90
27619;DHT22;15039;50.830;4.730;2024-02-26T10:49:50;6.30;99.90
27619;DHT22;15039;50.830;4.730;2024-02-26T10:52:15;6.10;99.90
27619;DHT22;15039;50.830;4.730;2024-02-26T10:54:43;6.10;99.90
27619;DHT22;15039;50.830;4.730;2024-02-26T10:57:12;6.10;99.90
27619;DHT22;15039;50.830;4.730;2024-02-26T10:59:38;6.20;99.90
27619;DHT22;15039;50.830;4.730;2024-02-26T11:02:04;6.10;99.90
27619;DHT22;15039;50.830;4.730;2024-02-26T11:04:30;6.00;99.90
27619;DHT22;15039;50.830;4.730;2024-02-26T11:06:56;6.10;99.90
27619;DHT22;15039;50.830;4.730;2024-02-26T11:09:22;6.10;99.90
27619;DHT22;15039;50.830;4.730;2024-02-26T11:11:48;6.00;99.90
27619;DHT22;15039;50.830;4.730;2024-02-26T11:14:13;6.00;99.90
27619;DHT22;15039;50.830;4.730;2024-02-26T11:16:39;6.00;99.90
27619;DHT22;15039;50.830;4.730;2024-02-26T11:19:08;6.00;99.90
27619;DHT22;15039;50.830;4.730;2024-02-26T11:21:34;6.00;99.90
27619;DHT22;15039;50.830;4.730;2024-02-26T11:24:07;5.90;99.90
27619;DHT22;15039;50.830;4.730;2024-02-26T11:26:34;5.80;99.90
27619;DHT22;15039;50.830;4.730;2024-02-26T11:29:01;5.90;99.90
27619;DHT22;15039;50.830;4.730;2024-02-26T11:31:28;5.90;99.90
27619;DHT22;15039;50.830;4.730;2024-02-26T11:33:53;6.00;99.90
27619;DHT22;15039;50.830;4.730;2024-02-26T11:36:19;5.80;99.90
27619;DHT22;15039;50.830;4.730;2024-02-26T11:38:45;5.80;99.90
27619;DHT22;15039;50.830;4.730;2024-02-26T11:41:14;6.00;99.90
27619;DHT22;15039;50.830;4.730;2024-02-26T11:43:50;5.90;99.90
27619;DHT22;15039;50.830;4.730;2024-02-26T11:46:59;5.80;99.90
27619;DHT22;15039;50.830;4.730;2024-02-26T11:51:50;5.80;99.90
27619;DHT22;15039;50.830;4.730;2024-02-26T11:54:37;5.90;99.90
27619;DHT22;15039;50.830;4.730;2024-02-26T11:57:01;5.90;99.90
27619;DHT22;15039;50.830;4.730;2024-02-26T11:59:39;5.80;99.90
27619;DHT22;15039;50.830;4.730;2024-02-26T12:02:06;5.80;99.90
27619;DHT22;15039;50.830;4.730;2024-02-26T12:04:32;5.90;99.90
27619;DHT22;15039;50.830;4.730;2024-02-26T12:07:02;5.90;99.90
27619;DHT22;15039;50.830;4.730;2024-02-26T12:09:36;6.00;99.90
27619;DHT22;15039;50.830;4.730;2024-02-26T12:12:02;5.90;99.90
27619;DHT22;15039;50.830;4.730;2024-02-26T12:14:28;6.00;99.90
27619;DHT22;15039;50.830;4.730;2024-02-26T12:16:55;6.10;99.90
27619;DHT22;15039;50.830;4.730;2024-02-26T12:19:21;6.10;99.90
27619;DHT22;15039;50.830;4.730;2024-02-26T12:21:49;5.90;99.90
27619;DHT22;15039;50.830;4.730;2024-02-26T12:24:16;5.80;99.90
27619;DHT22;15039;50.830;4.730;2024-02-26T12:26:43;5.80;99.90
27619;DHT22;15039;50.830;4.730;2024-02-26T12:29:09;5.90;99.90
27619;DHT22;15039;50.830;4.730;2024-02-26T12:31:36;5.90;99.90
27619;DHT22;15039;50.830;4.730;2024-02-26T12:34:02;5.80;99.90
27619;DHT22;15039;50.830;4.730;2024-02-26T12:36:28;5.90;99.90
27619;DHT22;15039;50.830;4.730;2024-02-26T12:38:54;5.80;99.90
27619;DHT22;15039;50.830;4.730;2024-02-26T12:41:20;5.90;99.90
27619;DHT22;15039;50.830;4.730;2024-02-26T12:43:46;5.90;99.90
27619;DHT22;15039;50.830;4.730;2024-02-26T12:46:11;5.90;99.90
27619;DHT22;15039;50.830;4.730;2024-02-26T12:48:38;5.90;99.90
27619;DHT22;15039;50.830;4.730;2024-02-26T12:51:04;6.10;99.90
27619;DHT22;15039;50.830;4.730;2024-02-26T12:53:31;6.00;99.90
27619;DHT22;15039;50.830;4.730;2024-02-26T12:55:57;6.00;99.90
27619;DHT22;15039;50.830;4.730;2024-02-26T12:58:22;5.80;99.90
27619;DHT22;15039;50.830;4.730;2024-02-26T13:00:53;6.00;99.90
27619;DHT22;15039;50.830;4.730;2024-02-26T13:03:19;5.90;99.90
27619;DHT22;15039;50.830;4.730;2024-02-26T13:05:45;6.00;99.90
27619;DHT22;15039;50.830;4.730;2024-02-26T13:08:17;5.90;99.90
27619;DHT22;15039;50.830;4.730;2024-02-26T13:10:42;6.00;99.90
27619;DHT22;15039;50.830;4.730;2024-02-26T13:13:08;5.90;99.90
27619;DHT22;15039;50.830;4.730;2024-02-26T13:15:34;6.00;99.90
27619;DHT22;15039;50.830;4.730;2024-02-26T13:17:59;6.00;99.90
27619;DHT22;15039;50.830;4.730;2024-02-26T13:20:34;6.00;99.90
27619;DHT22;15039;50.830;4.730;2024-02-26T13:23:04;6.00;99.90
27619;DHT22;15039;50.830;4.730;2024-02-26T13:25:30;5.90;99.90
27619;DHT22;15039;50.830;4.730;2024-02-26T13:28:06;5.90;99.90
27619;DHT22;15039;50.830;4.730;2024-02-26T13:30:32;5.90;99.90
27619;DHT22;15039;50.830;4.730;2024-02-26T13:33:06;6.00;99.90
27619;DHT22;15039;50.830;4.730;2024-02-26T13:35:32;6.00;99.90
27619;DHT22;15039;50.830;4.730;2024-02-26T13:38:00;5.90;99.90
27619;DHT22;15039;50.830;4.730;2024-02-26T13:40:26;5.90;99.90
27619;DHT22;15039;50.830;4.730;2024-02-26T13:42:51;5.90;99.90
27619;DHT22;15039;50.830;4.730;2024-02-26T13:45:18;6.00;99.90
27619;DHT22;15039;50.830;4.730;2024-02-26T13:47:43;6.10;99.90
27619;DHT22;15039;50.830;4.730;2024-02-26T13:50:09;6.10;99.90
27619;DHT22;15039;50.830;4.730;2024-02-26T13:52:35;6.10;99.90
27619;DHT22;15039;50.830;4.730;2024-02-26T13:55:00;6.10;99.90
27619;DHT22;15039;50.830;4.730;2024-02-26T13:57:27;6.10;99.90
27619;DHT22;15039;50.830;4.730;2024-02-26T13:59:54;6.10;99.90
27619;DHT22;15039;50.830;4.730;2024-02-26T14:02:19;6.00;99.90
27619;DHT22;15039;50.830;4.730;2024-02-26T14:04:45;6.00;99.90
27619;DHT22;15039;50.830;4.730;2024-02-26T14:07:11;6.00;99.90
27619;DHT22;15039;50.830;4.730;2024-02-26T14:09:37;6.00;99.90
27619;DHT22;15039;50.830;4.730;2024-02-26T14:12:03;6.00;99.90
27619;DHT22;15039;50.830;4.730;2024-02-26T14:14:28;6.00;99.90
27619;DHT22;15039;50.830;4.730;2024-02-26T14:16:54;5.90;99.90
27619;DHT22;15039;50.830;4.730;2024-02-26T14:19:20;5.90;99.90
27619;DHT22;15039;50.830;4.730;2024-02-26T14:21:45;5.90;99.90
27619;DHT22;15039;50.830;4.730;2024-02-26T14:24:11;5.90;99.90
27619;DHT22;15039;50.830;4.730;2024-02-26T14:26:36;5.90;99.90
27619;DHT22;15039;50.830;4.730;2024-02-26T14:29:02;6.00;99.90
27619;DHT22;15039;50.830;4.730;2024-02-26T14:31:27;6.00;99.90
27619;DHT22;15039;50.830;4.730;2024-02-26T14:33:53;5.90;99.90
27619;DHT22;15039;50.830;4.730;2024-02-26T14:36:22;5.80;99.90
27619;DHT22;15039;50.830;4.730;2024-02-26T14:38:48;5.80;99.90
27619;DHT22;15039;50.830;4.730;2024-02-26T14:41:13;5.80;99.90
27619;DHT22;15039;50.830;4.730;2024-02-26T14:43:39;5.90;99.90
27619;DHT22;15039;50.830;4.730;2024-02-26T14:46:04;5.80;99.90
27619;DHT22;15039;50.830;4.730;2024-02-26T14:48:30;5.90;99.90
27619;DHT22;15039;50.830;4.730;2024-02-26T14:50:56;5.80;99.90
27619;DHT22;15039;50.830;4.730;2024-02-26T14:53:21;5.80;99.90
27619;DHT22;15039;50.830;4.730;2024-02-26T14:55:47;5.90;99.90
27619;DHT22;15039;50.830;4.730;2024-02-26T14:58:12;5.90;99.90
27619;DHT22;15039;50.830;4.730;2024-02-26T15:00:38;5.90;99.90
27619;DHT22;15039;50.830;4.730;2024-02-26T15:03:03;5.90;99.90
27619;DHT22;15039;50.830;4.730;2024-02-26T15:05:29;5.90;99.90
27619;DHT22;15039;50.830;4.730;2024-02-26T15:07:55;5.90;99.90
27619;DHT22;15039;50.830;4.730;2024-02-26T15:10:20;6.10;99.90
27619;DHT22;15039;50.830;4.730;2024-02-26T15:12:46;5.90;99.90
27619;DHT22;15039;50.830;4.730;2024-02-26T15:15:12;6.00;99.90
27619;DHT22;15039;50.830;4.730;2024-02-26T15:17:37;6.00;99.90
27619;DHT22;15039;50.830;4.730;2024-02-26T15:20:03;5.90;99.90
27619;DHT22;15039;50.830;4.730;2024-02-26T15:22:30;5.90;99.90
27619;DHT22;15039;50.830;4.730;2024-02-26T15:24:59;6.00;99.90
27619;DHT22;15039;50.830;4.730;2024-02-26T15:27:24;5.90;99.90
27619;DHT22;15039;50.830;4.730;2024-02-26T15:29:50;6.00;99.90
27619;DHT22;15039;50.830;4.730;2024-02-26T15:32:23;6.00;99.90
27619;DHT22;15039;50.830;4.730;2024-02-26T15:34:50;6.10;99.90
27619;DHT22;15039;50.830;4.730;2024-02-26T15:37:16;6.10;99.90
27619;DHT22;15039;50.830;4.730;2024-02-26T15:39:41;6.00;99.90
27619;DHT22;15039;50.830;4.730;2024-02-26T15:42:07;6.10;99.90
27619;DHT22;15039;50.830;4.730;2024-02-26T15:44:32;6.00;99.90